Time;durP1;ratioP1;P1;durP2;ratioP2;P2;SDS_P1;SDS_P2;PMS_P1;PMS_P2;Temp;Humidity;BMP_temperature;BMP_pressure;BME280_temperature;BME280_humidity;BME280_pressure;Samples;Min_cycle;Max_cycle;Signal;HPM_P1;HPM_P2
2020/12/09 00:01:50;;;;;;;37.23;22.90;;;;;;;5.29;80.47;95213.44;5088973;28;20419;-66
2020/12/09 00:04:16;;;;;;;45.57;24.40;;;;;;;5.33;81.11;95214.59;5079148;28;20420;-66
2020/12/09 00:06:42;;;;;;;35.90;24.37;;;;;;;5.42;80.18;95215.84;5075695;28;20410;-67
2020/12/09 00:09:12;;;;;;;35.53;23.47;;;;;;;5.33;81.25;95219.00;5076983;28;20466;-64
2020/12/09 00:11:38;;;;;;;39.00;23.90;;;;;;;5.35;80.83;95225.56;5078456;28;20207;-65
2020/12/09 00:14:05;;;;;;;38.23;22.80;;;;;;;5.26;80.99;95224.28;5094256;28;20446;-67
2020/12/09 00:16:31;;;;;;;38.40;23.73;;;;;;;5.16;81.53;95232.63;5095313;28;20460;-64
2020/12/09 00:18:56;;;;;;;38.90;25.10;;;;;;;4.99;82.32;95233.44;5096069;28;20431;-66
2020/12/09 00:21:24;;;;;;;45.23;24.43;;;;;;;4.93;82.57;95232.50;5081262;28;20422;-64
2020/12/09 00:23:53;;;;;;;40.30;25.00;;;;;;;4.77;83.57;95235.72;5075600;28;20636;-67
2020/12/09 00:26:20;;;;;;;42.53;25.37;;;;;;;4.56;84.61;95230.94;5075121;28;20449;-64
2020/12/09 00:28:46;;;;;;;45.83;27.00;;;;;;;4.35;86.20;95236.53;5075777;28;20439;-64
2020/12/09 00:31:15;;;;;;;45.00;25.13;;;;;;;4.48;85.50;95239.03;5079936;28;20913;-63
2020/12/09 00:33:41;;;;;;;39.77;24.60;;;;;;;4.50;85.67;95231.00;5080284;28;20428;-64
2020/12/09 00:36:06;;;;;;;40.33;24.93;;;;;;;4.20;86.81;95230.91;5095981;28;20465;-63
2020/12/09 00:38:32;;;;;;;41.00;24.80;;;;;;;4.31;86.58;95232.00;5095558;28;20261;-66
2020/12/09 00:40:57;;;;;;;40.70;24.10;;;;;;;4.50;86.59;95239.59;5094082;28;20232;-64
2020/12/09 00:43:22;;;;;;;43.40;25.87;;;;;;;4.54;85.97;95238.16;5076936;28;20178;-64
2020/12/09 00:45:48;;;;;;;39.37;25.13;;;;;;;4.58;86.23;95236.72;5089134;28;20620;-64
2020/12/09 00:48:13;;;;;;;43.00;25.30;;;;;;;4.43;86.02;95238.88;5075227;28;20270;-64
2020/12/09 00:50:39;;;;;;;43.97;26.53;;;;;;;4.42;86.36;95233.91;5075226;28;20202;-64
2020/12/09 00:53:04;;;;;;;40.43;24.47;;;;;;;4.34;86.58;95234.97;5075499;28;20705;-66
2020/12/09 00:55:30;;;;;;;39.07;22.87;;;;;;;4.31;86.66;95239.81;5086955;28;20288;-67
2020/12/09 00:57:56;;;;;;;37.70;24.50;;;;;;;4.22;87.55;95241.88;5077493;28;20187;-67
2020/12/09 01:00:22;;;;;;;47.27;25.73;;;;;;;4.22;87.63;95241.09;5082870;28;20552;-66
2020/12/09 01:02:47;;;;;;;37.83;23.07;;;;;;;4.25;87.56;95232.84;5080851;28;20435;-66
2020/12/09 01:05:13;;;;;;;40.07;24.03;;;;;;;4.39;87.09;95231.72;5091397;28;20191;-66
2020/12/09 01:07:39;;;;;;;40.13;23.60;;;;;;;4.29;87.03;95226.22;5086762;28;20174;-64
2020/12/09 01:10:06;;;;;;;44.20;24.20;;;;;;;4.37;87.02;95233.72;5088104;28;20439;-66
2020/12/09 01:12:31;;;;;;;43.20;23.87;;;;;;;4.35;86.97;95246.16;5095460;28;20216;-66
2020/12/09 01:14:57;;;;;;;40.80;24.27;;;;;;;4.34;87.69;95244.56;5095016;28;20848;-66
2020/12/09 01:17:22;;;;;;;40.63;24.57;;;;;;;4.30;88.25;95246.78;5077051;28;20269;-66
2020/12/09 01:19:47;;;;;;;37.53;22.83;;;;;;;4.29;87.66;95250.41;5094955;28;20204;-63
2020/12/09 01:22:13;;;;;;;39.87;23.00;;;;;;;4.31;87.68;95253.59;5078208;28;20182;-66
2020/12/09 01:24:39;;;;;;;41.67;24.60;;;;;;;4.45;88.48;95247.25;5075668;28;20186;-67
2020/12/09 01:27:04;;;;;;;41.83;24.83;;;;;;;4.69;87.43;95248.22;5074626;28;20188;-64
2020/12/09 01:29:29;;;;;;;37.67;22.47;;;;;;;4.87;86.90;95240.41;5074585;28;20204;-67
2020/12/09 01:31:59;;;;;;;40.57;24.20;;;;;;;4.93;86.23;95237.72;5074951;28;20181;-66
2020/12/09 01:34:25;;;;;;;38.70;23.00;;;;;;;4.84;86.59;95240.81;5074734;28;20640;-66
2020/12/09 01:36:51;;;;;;;35.87;23.50;;;;;;;4.88;86.81;95248.00;5073709;28;20491;-66
2020/12/09 01:39:16;;;;;;;41.37;24.33;;;;;;;5.05;85.95;95243.78;5082413;28;20459;-66
2020/12/09 01:41:42;;;;;;;44.03;25.13;;;;;;;5.02;85.36;95249.41;5073121;28;20185;-64
2020/12/09 01:44:07;;;;;;;40.60;24.90;;;;;;;5.23;85.14;95256.78;5074485;28;20178;-64
2020/12/09 01:46:33;;;;;;;42.57;25.17;;;;;;;5.36;84.76;95266.25;5074103;28;20178;-67
2020/12/09 01:49:00;;;;;;;44.70;25.80;;;;;;;5.38;83.45;95264.19;5074246;28;20204;-64
2020/12/09 01:51:27;;;;;;;38.80;24.50;;;;;;;5.48;83.59;95271.47;5073998;28;20186;-66
2020/12/09 01:53:55;;;;;;;43.00;24.30;;;;;;;5.50;83.22;95272.84;5073682;28;20463;-66
2020/12/09 01:56:20;;;;;;;39.57;24.80;;;;;;;5.56;83.18;95271.94;5074075;28;20452;-67
2020/12/09 01:58:48;;;;;;;41.43;25.60;;;;;;;5.59;82.70;95263.72;5073989;28;20408;-67
2020/12/09 02:01:14;;;;;;;40.60;24.60;;;;;;;5.70;82.93;95256.94;5074079;28;20170;-66
2020/12/09 02:03:39;;;;;;;45.33;25.47;;;;;;;5.68;83.00;95267.59;5074657;28;20454;-66
2020/12/09 02:06:05;;;;;;;44.43;25.83;;;;;;;5.78;82.50;95269.66;5094354;28;20170;-66
2020/12/09 02:08:30;;;;;;;43.10;25.00;;;;;;;5.87;81.95;95278.78;5089568;28;20548;-66
2020/12/09 02:11:03;;;;;;;37.93;22.70;;;;;;;5.81;81.66;95282.25;5073737;28;20194;-64
2020/12/09 02:13:29;;;;;;;39.40;22.90;;;;;;;5.77;81.50;95286.31;5073981;28;20182;-64
2020/12/09 02:15:57;;;;;;;40.70;24.73;;;;;;;5.78;81.30;95291.28;5073377;28;20502;-66
2020/12/09 02:18:23;;;;;;;43.60;26.50;;;;;;;5.82;82.62;95297.66;5073519;28;20788;-66
2020/12/09 02:20:48;;;;;;;41.20;25.03;;;;;;;5.92;81.71;95292.75;5084879;28;20440;-65
2020/12/09 02:23:14;;;;;;;43.00;23.83;;;;;;;5.92;80.96;95305.78;5094073;28;20507;-66
2020/12/09 02:25:39;;;;;;;41.43;24.00;;;;;;;6.01;81.46;95303.63;5094061;28;20200;-66
2020/12/09 02:28:04;;;;;;;42.83;24.93;;;;;;;5.94;81.01;95306.31;5089673;28;20192;-64
2020/12/09 02:30:30;;;;;;;45.80;25.50;;;;;;;5.94;81.82;95315.97;5073637;28;20209;-64
2020/12/09 02:32:55;;;;;;;44.17;27.33;;;;;;;5.99;81.27;95316.91;5074668;28;20703;-66
2020/12/09 02:35:21;;;;;;;40.07;24.63;;;;;;;5.98;81.50;95317.09;5073585;28;20199;-65
2020/12/09 02:37:46;;;;;;;39.87;25.73;;;;;;;6.06;81.15;95327.22;5073270;28;20193;-64
2020/12/09 02:40:12;;;;;;;43.20;24.60;;;;;;;6.08;80.43;95322.56;5073298;28;20227;-64
2020/12/09 02:42:37;;;;;;;46.53;27.27;;;;;;;6.12;80.61;95331.53;5073378;28;20251;-65
2020/12/09 02:45:03;;;;;;;40.70;25.27;;;;;;;6.07;80.63;95331.41;5071655;28;20549;-64
2020/12/09 02:47:28;;;;;;;40.13;25.00;;;;;;;6.08;80.24;95325.19;5073163;28;20174;-67
2020/12/09 02:49:54;;;;;;;40.30;25.37;;;;;;;6.05;80.35;95328.25;5073327;28;20187;-65
2020/12/09 02:52:19;;;;;;;39.73;24.70;;;;;;;6.04;80.49;95330.06;5073742;28;20166;-64
2020/12/09 02:54:44;;;;;;;43.40;27.57;;;;;;;6.08;80.97;95331.19;5073365;28;20240;-67
2020/12/09 02:57:10;;;;;;;40.50;26.10;;;;;;;6.13;80.80;95330.50;5072899;28;20177;-64
2020/12/09 02:59:35;;;;;;;44.40;25.50;;;;;;;6.19;80.12;95343.47;5070865;28;20204;-64
2020/12/09 03:02:01;;;;;;;42.37;26.17;;;;;;;6.11;80.48;95337.75;5074311;28;20635;-67
2020/12/09 03:04:26;;;;;;;42.43;26.17;;;;;;;6.10;80.58;95333.59;5073490;28;20251;-66
2020/12/09 03:06:51;;;;;;;42.23;25.40;;;;;;;6.10;80.27;95342.22;5077178;28;20629;-64
2020/12/09 03:09:17;;;;;;;41.80;25.10;;;;;;;5.97;80.92;95337.19;5077165;28;20202;-67
2020/12/09 03:11:42;;;;;;;43.90;25.10;;;;;;;6.02;80.93;95339.91;5077324;28;20171;-67
2020/12/09 03:14:07;;;;;;;41.30;26.90;;;;;;;6.04;80.94;95337.88;5077153;28;20201;-66
2020/12/09 03:16:33;;;;;;;42.00;24.17;;;;;;;6.08;80.40;95338.22;5087135;28;20201;-64
2020/12/09 03:18:59;;;;;;;43.00;27.00;;;;;;;6.12;80.17;95339.38;5097552;28;20190;-64
2020/12/09 03:21:24;;;;;;;47.93;28.30;;;;;;;5.99;79.99;95353.38;5097350;28;20162;-66
2020/12/09 03:23:50;;;;;;;40.80;26.30;;;;;;;6.02;80.04;95352.13;5097690;28;20757;-66
2020/12/09 03:26:15;;;;;;;41.97;25.83;;;;;;;6.12;79.69;95352.41;5097276;28;20174;-66
2020/12/09 03:28:41;;;;;;;39.80;25.20;;;;;;;5.99;79.90;95356.00;5086703;28;20657;-64
2020/12/09 03:31:06;;;;;;;39.77;25.53;;;;;;;5.95;81.18;95349.63;5077031;28;20178;-64
2020/12/09 03:33:32;;;;;;;40.03;25.53;;;;;;;6.08;80.68;95354.66;5077126;28;20171;-66
2020/12/09 03:35:58;;;;;;;41.97;24.60;;;;;;;6.01;80.17;95355.78;5076843;28;20248;-65
2020/12/09 03:38:23;;;;;;;40.10;25.50;;;;;;;6.08;79.53;95351.25;5076241;28;20439;-64
2020/12/09 03:40:49;;;;;;;42.30;25.63;;;;;;;6.14;79.40;95347.78;5077649;28;20197;-64
2020/12/09 03:43:16;;;;;;;41.73;27.00;;;;;;;6.05;80.28;95352.47;5076522;28;20264;-63
2020/12/09 03:45:41;;;;;;;40.33;25.80;;;;;;;6.02;80.11;95349.53;5076056;28;20183;-64
2020/12/09 03:48:06;;;;;;;43.43;26.33;;;;;;;5.85;80.00;95351.97;5076159;28;20413;-67
2020/12/09 03:50:32;;;;;;;41.73;26.30;;;;;;;5.68;81.19;95352.78;5076168;28;20191;-64
2020/12/09 03:52:58;;;;;;;38.63;24.63;;;;;;;5.73;80.99;95363.31;5076483;28;20167;-64
2020/12/09 03:55:23;;;;;;;45.30;26.27;;;;;;;5.67;81.92;95353.81;5075852;28;20240;-67
2020/12/09 03:57:49;;;;;;;42.87;26.70;;;;;;;5.59;82.81;95354.09;5076214;28;20174;-67
2020/12/09 04:00:14;;;;;;;44.57;26.13;;;;;;;5.28;83.39;95343.84;5076469;28;20648;-64
2020/12/09 04:02:40;;;;;;;46.40;29.20;;;;;;;5.19;84.08;95333.72;5076428;28;20183;-66
2020/12/09 04:05:05;;;;;;;48.60;28.87;;;;;;;5.21;85.00;95333.50;5076377;28;20171;-67
2020/12/09 04:07:31;;;;;;;44.40;27.20;;;;;;;4.81;86.41;95340.94;5075855;28;20182;-64
2020/12/09 04:09:57;;;;;;;50.87;29.90;;;;;;;4.88;86.59;95335.66;5085044;28;20211;-64
2020/12/09 04:12:23;;;;;;;45.17;25.80;;;;;;;4.44;89.01;95344.47;5076110;28;20179;-66
2020/12/09 04:14:52;;;;;;;45.83;27.70;;;;;;;4.63;88.72;95345.31;5076045;28;20174;-66
2020/12/09 04:17:19;;;;;;;45.27;25.80;;;;;;;4.56;88.51;95360.19;5075689;28;20784;-66
2020/12/09 04:19:46;;;;;;;44.33;27.67;;;;;;;4.52;89.22;95354.59;5075843;28;20434;-64
2020/12/09 04:22:12;;;;;;;44.80;27.73;;;;;;;4.57;88.71;95359.97;5077383;28;20420;-66
2020/12/09 04:24:37;;;;;;;45.37;27.47;;;;;;;4.70;88.43;95356.44;5075639;28;20417;-64
2020/12/09 04:27:02;;;;;;;41.67;27.60;;;;;;;4.63;89.53;95360.91;5075161;28;20447;-64
2020/12/09 04:29:28;;;;;;;43.97;27.43;;;;;;;4.73;88.90;95358.63;5075930;28;20205;-64
2020/12/09 04:31:53;;;;;;;45.27;26.00;;;;;;;4.53;89.54;95358.78;5075976;28;20590;-66
2020/12/09 04:34:19;;;;;;;42.63;26.20;;;;;;;4.61;89.17;95355.13;5076039;28;20174;-64
2020/12/09 04:36:47;;;;;;;40.30;24.43;;;;;;;4.66;89.15;95350.06;5095165;28;20697;-67
2020/12/09 04:39:13;;;;;;;43.73;25.23;;;;;;;4.59;89.20;95360.53;5091975;28;20444;-64
2020/12/09 04:41:38;;;;;;;44.30;27.03;;;;;;;4.72;88.83;95362.22;5075379;28;20428;-64
2020/12/09 04:44:04;;;;;;;46.20;25.70;;;;;;;4.71;89.20;95355.44;5075658;28;20224;-64
2020/12/09 04:46:29;;;;;;;53.33;28.30;;;;;;;4.78;88.75;95367.38;5075277;28;20158;-64
2020/12/09 04:48:57;;;;;;;46.00;25.87;;;;;;;4.77;88.21;95371.00;5087508;28;20668;-64
2020/12/09 04:51:29;;;;;;;45.07;27.37;;;;;;;4.87;88.53;95375.72;5096114;28;20233;-66
2020/12/09 04:53:58;;;;;;;48.47;26.53;;;;;;;4.87;88.13;95376.47;5094366;28;20415;-66
2020/12/09 04:56:33;;;;;;;45.47;28.50;;;;;;;4.89;87.79;95376.28;5075270;28;20451;-66
2020/12/09 04:59:02;;;;;;;47.70;27.63;;;;;;;4.97;87.80;95387.22;5083458;28;20493;-66
2020/12/09 05:01:33;;;;;;;45.00;27.60;;;;;;;5.02;86.40;95383.94;5094329;28;20548;-64
2020/12/09 05:04:02;;;;;;;44.87;27.10;;;;;;;4.85;87.76;95388.94;5078654;28;20529;-64
2020/12/09 05:06:29;;;;;;;47.80;25.97;;;;;;;4.93;87.84;95391.25;5074807;28;20484;-65
2020/12/09 05:09:00;;;;;;;45.27;27.83;;;;;;;4.94;86.85;95394.66;5074760;28;20416;-66
2020/12/09 05:11:27;;;;;;;50.27;27.70;;;;;;;4.89;87.15;95391.91;5074971;28;20454;-64
2020/12/09 05:13:55;;;;;;;44.20;26.33;;;;;;;5.00;87.95;95397.19;5075093;28;20419;-64
2020/12/09 05:16:22;;;;;;;48.30;26.53;;;;;;;5.08;87.19;95402.13;5082813;28;20544;-67
2020/12/09 05:18:54;;;;;;;44.93;26.63;;;;;;;5.21;86.86;95401.19;5095271;28;20489;-67
2020/12/09 05:21:23;;;;;;;44.43;27.53;;;;;;;5.24;86.27;95403.34;5095148;28;20399;-66
2020/12/09 05:23:53;;;;;;;43.90;24.70;;;;;;;5.33;86.42;95409.88;5092470;28;20414;-65
2020/12/09 05:26:29;;;;;;;43.73;25.23;;;;;;;5.40;85.60;95412.44;5075417;28;20522;-67
2020/12/09 05:29:07;;;;;;;44.57;25.30;;;;;;;5.43;86.31;95418.00;5079815;28;20433;-66
2020/12/09 05:31:33;;;;;;;43.33;24.83;;;;;;;5.48;85.69;95422.53;5094956;28;20415;-64
2020/12/09 05:33:59;;;;;;;41.80;24.97;;;;;;;5.56;85.01;95419.66;5077581;28;20435;-64
2020/12/09 05:36:26;;;;;;;46.13;24.90;;;;;;;5.61;84.87;95422.41;5074114;28;20480;-66
2020/12/09 05:39:06;;;;;;;45.33;26.80;;;;;;;5.67;84.37;95427.53;5073909;28;20194;-65
2020/12/09 05:41:34;;;;;;;44.70;26.47;;;;;;;5.69;84.25;95427.34;5075474;28;20393;-64
2020/12/09 05:44:03;;;;;;;33.83;21.83;;;;;;;5.69;84.15;95427.34;5054544;28;20757;-64
2020/12/09 05:46:29;;;;;;;44.80;24.50;;;;;;;5.66;83.51;95417.31;5054159;28;20409;-64
2020/12/09 05:48:55;;;;;;;43.13;25.17;;;;;;;5.67;83.08;95414.50;5054344;28;20422;-66
2020/12/09 05:51:21;;;;;;;38.70;24.17;;;;;;;5.38;83.89;95417.06;5054223;28;20181;-65
2020/12/09 05:53:47;;;;;;;38.67;23.73;;;;;;;5.31;84.50;95411.91;5060222;28;20416;-65
2020/12/09 05:56:15;;;;;;;40.23;26.20;;;;;;;5.16;85.00;95424.50;5075055;28;20444;-65
2020/12/09 05:58:44;;;;;;;45.20;26.90;;;;;;;5.14;85.55;95410.88;5088807;28;20166;-65
2020/12/09 06:01:22;;;;;;;43.53;27.70;;;;;;;4.92;85.59;95413.09;5073892;28;20400;-66
2020/12/09 06:03:57;;;;;;;44.40;26.00;;;;;;;4.80;86.73;95419.22;5074124;28;20406;-66
2020/12/09 06:06:27;;;;;;;47.50;25.60;;;;;;;4.76;87.37;95420.63;5088220;28;20981;-67
2020/12/09 06:08:57;;;;;;;44.93;25.27;;;;;;;4.83;87.49;95429.97;5094086;28;20732;-65
2020/12/09 06:11:23;;;;;;;41.30;27.03;;;;;;;4.67;88.19;95438.31;5092500;28;20767;-64
2020/12/09 06:13:50;;;;;;;45.27;26.70;;;;;;;4.88;86.72;95439.75;5085650;28;20452;-66
2020/12/09 06:16:19;;;;;;;40.67;23.63;;;;;;;4.91;86.79;95439.34;5073810;28;20462;-66
2020/12/09 06:18:52;;;;;;;41.70;25.17;;;;;;;4.78;87.47;95436.84;5073930;28;20404;-64
2020/12/09 06:21:18;;;;;;;48.30;26.03;;;;;;;4.73;87.90;95441.88;5074141;28;20471;-66
2020/12/09 06:23:44;;;;;;;49.40;26.87;;;;;;;4.85;87.51;95440.19;5073898;28;20867;-65
2020/12/09 06:26:10;;;;;;;43.97;25.30;;;;;;;4.71;88.23;95438.69;5091208;28;20621;-64
2020/12/09 06:28:39;;;;;;;44.60;25.63;;;;;;;4.69;88.51;95444.09;5084448;28;20513;-64
2020/12/09 06:31:14;;;;;;;41.40;25.23;;;;;;;4.70;88.88;95443.09;5073486;28;20408;-66
2020/12/09 06:33:46;;;;;;;44.87;25.93;;;;;;;4.58;89.38;95446.59;5072394;28;20836;-66
2020/12/09 06:36:14;;;;;;;46.63;24.77;;;;;;;4.65;89.70;95442.94;5073211;28;20804;-67
2020/12/09 06:38:40;;;;;;;45.30;23.70;;;;;;;4.67;89.29;95447.91;5067168;28;20424;-64
2020/12/09 06:41:05;;;;;;;45.53;26.23;;;;;;;4.68;89.67;95439.09;5073966;28;20432;-66
2020/12/09 06:43:31;;;;;;;41.00;25.03;;;;;;;4.63;88.84;95441.53;5073546;28;20623;-65
2020/12/09 06:45:57;;;;;;;45.40;25.50;;;;;;;4.62;88.84;95445.16;5073462;28;20204;-66
2020/12/09 06:48:24;;;;;;;40.40;25.20;;;;;;;4.54;89.34;95448.00;5073071;28;20396;-65
2020/12/09 06:50:50;;;;;;;45.30;25.97;;;;;;;4.59;89.77;95450.78;5073348;28;20423;-64
2020/12/09 06:53:20;;;;;;;45.00;25.83;;;;;;;4.63;89.11;95444.94;5081505;28;20924;-64
2020/12/09 06:55:47;;;;;;;47.77;25.97;;;;;;;4.45;89.84;95449.28;5073417;28;20623;-65
2020/12/09 06:58:28;;;;;;;42.90;26.00;;;;;;;4.48;90.19;95459.25;5073926;28;20419;-64
2020/12/09 07:01:00;;;;;;;47.70;25.90;;;;;;;4.44;90.48;95460.69;5073227;28;20474;-64
2020/12/09 07:03:28;;;;;;;44.10;27.23;;;;;;;4.32;90.84;95468.34;5073338;28;20461;-64
2020/12/09 07:05:54;;;;;;;42.47;23.70;;;;;;;4.14;91.58;95466.47;5074297;28;20422;-64
2020/12/09 07:08:19;;;;;;;45.30;25.03;;;;;;;4.16;91.88;95471.44;5073646;28;20779;-65
2020/12/09 07:10:45;;;;;;;45.77;26.20;;;;;;;4.32;91.36;95480.53;5092323;28;20482;-65
2020/12/09 07:13:13;;;;;;;46.97;25.83;;;;;;;4.32;90.81;95480.53;5073178;28;20578;-66
2020/12/09 07:15:41;;;;;;;50.03;27.90;;;;;;;4.33;91.49;95482.16;5074695;28;20671;-66
2020/12/09 07:18:07;;;;;;;47.97;26.57;;;;;;;4.46;90.29;95482.06;5072818;28;20411;-66
2020/12/09 07:20:34;;;;;;;50.13;28.60;;;;;;;4.36;90.90;95490.34;5076605;28;20445;-66
2020/12/09 07:23:00;;;;;;;50.93;27.97;;;;;;;4.26;91.86;95497.00;5073154;28;20219;-64
2020/12/09 07:25:25;;;;;;;45.50;25.60;;;;;;;4.23;91.61;95495.59;5072858;28;20404;-64
2020/12/09 07:27:51;;;;;;;43.77;26.53;;;;;;;4.37;91.30;95494.50;5072108;28;20182;-67
2020/12/09 07:30:19;;;;;;;46.73;26.00;;;;;;;4.52;91.59;95499.44;5073008;28;20666;-67
2020/12/09 07:32:46;;;;;;;45.37;25.47;;;;;;;4.48;90.58;95501.66;5073154;28;20216;-67
2020/12/09 07:35:13;;;;;;;45.37;26.60;;;;;;;4.52;91.05;95508.03;5088410;28;20447;-67
2020/12/09 07:37:44;;;;;;;49.70;26.97;;;;;;;4.40;91.46;95508.91;5092770;28;20537;-63
2020/12/09 07:40:16;;;;;;;47.77;28.50;;;;;;;4.37;91.12;95506.72;5092656;28;20870;-65
2020/12/09 07:42:42;;;;;;;45.97;25.77;;;;;;;4.41;91.41;95507.91;5052850;28;20401;-63
2020/12/09 07:45:13;;;;;;;45.27;27.53;;;;;;;4.35;91.82;95503.53;5052898;28;20455;-67
2020/12/09 07:47:38;;;;;;;51.30;26.10;;;;;;;4.24;92.12;95504.97;5054848;28;20612;-66
2020/12/09 07:50:06;;;;;;;44.03;24.67;;;;;;;4.21;92.29;95505.41;5072710;28;20441;-64
2020/12/09 07:52:37;;;;;;;45.67;27.37;;;;;;;4.16;92.79;95518.22;5076509;28;20165;-67
2020/12/09 07:55:17;;;;;;;45.57;27.07;;;;;;;4.01;93.24;95515.06;5076123;28;20577;-63
2020/12/09 07:57:44;;;;;;;47.50;26.83;;;;;;;4.03;93.47;95518.28;5087859;28;20948;-62
2020/12/09 08:00:15;;;;;;;41.27;24.90;;;;;;;4.11;93.16;95520.66;5076049;28;20414;-66
2020/12/09 08:02:42;;;;;;;52.20;29.70;;;;;;;4.11;92.73;95518.81;5074888;28;20436;-67
2020/12/09 08:05:19;;;;;;;43.33;26.00;;;;;;;4.17;92.56;95523.22;5076284;28;20405;-67
2020/12/09 08:07:48;;;;;;;42.97;26.57;;;;;;;4.24;92.36;95525.00;5075434;28;20415;-63
2020/12/09 08:10:16;;;;;;;50.73;26.50;;;;;;;4.26;92.15;95525.59;5076240;28;20428;-67
2020/12/09 08:12:41;;;;;;;45.73;26.73;;;;;;;4.20;92.56;95530.59;5076101;28;20798;-65
2020/12/09 08:15:08;;;;;;;46.57;26.60;;;;;;;4.40;91.94;95527.13;5075968;28;20517;-61
2020/12/09 08:17:34;;;;;;;44.13;26.23;;;;;;;4.57;91.41;95528.19;5075440;28;20583;-65
2020/12/09 08:20:07;;;;;;;43.67;25.50;;;;;;;4.74;91.21;95534.50;5075941;28;20435;-61
2020/12/09 08:23:01;;;;;;;46.87;24.63;;;;;;;4.84;89.46;95535.66;5076038;28;20165;-65
2020/12/09 08:25:29;;;;;;;44.73;24.27;;;;;;;4.89;89.00;95537.63;5075732;28;20758;-65
2020/12/09 08:27:56;;;;;;;42.10;25.10;;;;;;;4.88;89.77;95536.81;5075556;28;20502;-65
2020/12/09 08:30:23;;;;;;;40.07;25.10;;;;;;;4.75;90.18;95547.31;5074792;28;20469;-61
2020/12/09 08:32:58;;;;;;;39.70;24.30;;;;;;;4.61;90.33;95547.59;5075870;28;20403;-61
2020/12/09 08:35:24;;;;;;;44.43;26.00;;;;;;;4.64;90.12;95549.81;5074931;28;20466;-64
2020/12/09 08:37:50;;;;;;;36.57;23.40;;;;;;;4.67;89.60;95562.38;5075352;28;20772;-60
2020/12/09 08:40:16;;;;;;;45.70;26.97;;;;;;;4.70;90.27;95562.75;5065474;28;20455;-61
2020/12/09 08:42:54;;;;;;;48.83;27.60;;;;;;;4.82;89.61;95565.50;5055595;28;20176;-60
2020/12/09 08:45:21;;;;;;;43.83;25.67;;;;;;;4.92;89.38;95561.44;5069155;28;20175;-61
2020/12/09 08:47:46;;;;;;;41.53;24.83;;;;;;;5.07;89.17;95567.09;5055074;28;20406;-60
2020/12/09 08:50:12;;;;;;;39.23;24.63;;;;;;;5.16;88.52;95571.06;5056876;28;20471;-65
2020/12/09 08:52:37;;;;;;;42.00;25.53;;;;;;;5.19;88.72;95562.84;5071809;28;20176;-63
2020/12/09 08:55:03;;;;;;;46.93;26.27;;;;;;;5.39;88.11;95562.69;5071800;28;20179;-60
2020/12/09 08:57:29;;;;;;;45.60;26.40;;;;;;;5.45;87.78;95568.84;5069858;28;20184;-65
2020/12/09 08:59:54;;;;;;;48.87;23.50;;;;;;;5.47;87.81;95557.19;5071413;28;20448;-64
2020/12/09 09:02:20;;;;;;;42.03;26.10;;;;;;;5.35;87.15;95561.50;5070294;28;20980;-62
2020/12/09 09:04:45;;;;;;;44.83;25.33;;;;;;;5.39;86.28;95565.28;5069718;28;20185;-66
2020/12/09 09:07:10;;;;;;;40.83;25.93;;;;;;;5.32;87.50;95556.72;5070868;28;20215;-61
2020/12/09 09:09:36;;;;;;;40.83;24.87;;;;;;;5.19;86.94;95565.44;5071506;28;20193;-60
2020/12/09 09:12:01;;;;;;;42.47;24.83;;;;;;;5.29;87.53;95564.16;5071755;28;20651;-63
2020/12/09 09:14:27;;;;;;;39.03;23.10;;;;;;;5.29;87.46;95561.56;5071047;28;20239;-64
2020/12/09 09:16:52;;;;;;;41.47;25.43;;;;;;;5.29;87.39;95571.97;5070646;28;20532;-62
2020/12/09 09:19:18;;;;;;;42.33;25.23;;;;;;;5.31;87.18;95573.34;5070779;28;20204;-62
2020/12/09 09:21:43;;;;;;;46.13;27.93;;;;;;;5.15;86.61;95573.88;5070974;28;20177;-65
2020/12/09 09:24:09;;;;;;;42.13;24.87;;;;;;;5.31;86.28;95568.13;5071326;28;20198;-64
2020/12/09 09:26:35;;;;;;;44.43;25.37;;;;;;;5.30;86.41;95557.94;5069928;28;20179;-64
2020/12/09 09:29:00;;;;;;;42.40;25.73;;;;;;;5.23;87.50;95561.41;5071012;28;20221;-61
2020/12/09 09:31:26;;;;;;;44.80;27.30;;;;;;;5.29;87.49;95564.16;5071126;28;20197;-66
2020/12/09 09:33:51;;;;;;;45.87;26.43;;;;;;;5.34;88.06;95557.31;5070481;28;20717;-61
2020/12/09 09:36:17;;;;;;;46.73;27.80;;;;;;;5.36;87.91;95560.50;5070007;28;20206;-65
2020/12/09 09:38:42;;;;;;;43.00;26.80;;;;;;;5.36;87.48;95555.31;5067306;28;20181;-63
2020/12/09 09:41:07;;;;;;;49.00;26.33;;;;;;;5.53;87.39;95561.53;5062429;28;20190;-63
2020/12/09 09:43:33;;;;;;;64.07;28.07;;;;;;;5.33;87.03;95557.53;5070638;28;20217;-61
2020/12/09 09:46:00;;;;;;;59.43;26.80;;;;;;;5.39;87.19;95562.69;5068801;28;20641;-60
2020/12/09 09:48:25;;;;;;;46.80;26.80;;;;;;;5.51;86.76;95553.13;5070086;28;20169;-60
2020/12/09 09:50:52;;;;;;;51.23;28.60;;;;;;;5.53;87.72;95553.72;5070464;28;20500;-62
2020/12/09 09:53:17;;;;;;;41.07;26.73;;;;;;;5.47;87.74;95553.81;5070495;28;20182;-62
2020/12/09 09:55:42;;;;;;;43.37;28.30;;;;;;;5.63;87.96;95561.06;5069381;28;20524;-60
2020/12/09 09:58:08;;;;;;;40.10;26.47;;;;;;;5.40;86.27;95559.03;5069964;28;20225;-61
2020/12/09 10:00:33;;;;;;;44.07;26.57;;;;;;;5.38;87.56;95560.28;5070027;28;20197;-63
2020/12/09 10:02:58;;;;;;;40.20;25.70;;;;;;;5.57;86.55;95559.31;5070690;28;20628;-63
2020/12/09 10:05:25;;;;;;;37.70;26.40;;;;;;;5.73;86.61;95559.56;5069915;28;20697;-64
2020/12/09 10:07:50;;;;;;;38.00;25.70;;;;;;;5.85;85.12;95568.28;5070199;28;20178;-63
2020/12/09 10:10:16;;;;;;;46.47;26.17;;;;;;;5.61;85.56;95566.50;5073874;28;20484;-62
2020/12/09 10:12:41;;;;;;;36.73;25.77;;;;;;;5.69;86.31;95568.81;5073780;28;20175;-62
2020/12/09 10:15:06;;;;;;;38.80;25.47;;;;;;;5.73;85.98;95574.38;5073690;28;20527;-62
2020/12/09 10:17:32;;;;;;;37.67;23.83;;;;;;;5.84;85.11;95579.72;5073519;28;20178;-64
2020/12/09 10:19:58;;;;;;;36.40;24.03;;;;;;;5.90;85.32;95578.88;5073851;28;20198;-64
2020/12/09 10:22:23;;;;;;;33.00;23.50;;;;;;;5.96;86.04;95583.22;5073575;28;20229;-62
2020/12/09 10:24:49;;;;;;;37.10;25.50;;;;;;;6.10;84.28;95581.28;5073683;28;20493;-62
2020/12/09 10:27:14;;;;;;;41.53;25.03;;;;;;;6.08;84.38;95572.88;5073161;28;20633;-62
2020/12/09 10:29:39;;;;;;;39.97;25.20;;;;;;;6.03;85.13;95565.69;5073640;28;20530;-64
2020/12/09 10:32:07;;;;;;;33.90;23.83;;;;;;;6.01;84.37;95572.16;5073853;28;20171;-64
2020/12/09 10:34:33;;;;;;;36.53;25.40;;;;;;;5.98;84.53;95567.34;5073698;28;20717;-62
2020/12/09 10:36:58;;;;;;;37.40;24.60;;;;;;;6.02;85.46;95564.09;5072866;28;20550;-62
2020/12/09 10:39:24;;;;;;;36.20;23.40;;;;;;;5.97;84.05;95563.97;5073667;28;20195;-62
2020/12/09 10:41:50;;;;;;;37.80;25.40;;;;;;;5.99;85.40;95568.97;5073859;28;20245;-62
2020/12/09 10:44:16;;;;;;;33.50;24.23;;;;;;;6.06;85.12;95562.66;5073302;28;20529;-62
2020/12/09 10:46:43;;;;;;;34.50;23.70;;;;;;;6.15;84.67;95569.19;5073151;28;20419;-62
2020/12/09 10:49:10;;;;;;;37.30;24.67;;;;;;;6.17;84.11;95572.38;5073440;28;20791;-62
2020/12/09 10:51:43;;;;;;;31.83;23.60;;;;;;;6.01;84.26;95564.31;5073362;28;20458;-64
2020/12/09 10:54:08;;;;;;;36.30;23.43;;;;;;;6.12;84.63;95561.78;5073599;28;20915;-62
2020/12/09 10:56:34;;;;;;;33.60;23.50;;;;;;;6.22;83.79;95559.47;5073355;28;20444;-62
2020/12/09 10:58:59;;;;;;;40.77;24.40;;;;;;;6.22;83.33;95554.25;5073108;28;20198;-62
2020/12/09 11:01:25;;;;;;;32.33;22.43;;;;;;;6.18;83.38;95557.50;5073428;28;20536;-64
2020/12/09 11:03:55;;;;;;;33.70;23.10;;;;;;;6.21;84.16;95557.09;5073301;28;20176;-63
2020/12/09 11:06:32;;;;;;;38.93;25.90;;;;;;;5.94;84.14;95556.56;5073051;28;20439;-63
2020/12/09 11:08:58;;;;;;;32.37;23.40;;;;;;;6.08;84.32;95546.81;5073112;28;20514;-63
2020/12/09 11:11:27;;;;;;;35.77;24.03;;;;;;;5.96;84.39;95551.16;5073488;28;20393;-62
2020/12/09 11:13:53;;;;;;;36.77;24.30;;;;;;;6.00;84.84;95545.28;5072661;28;20436;-62
2020/12/09 11:16:21;;;;;;;36.13;23.53;;;;;;;6.04;84.77;95546.44;5072895;28;20445;-63
2020/12/09 11:18:47;;;;;;;37.00;22.03;;;;;;;5.92;84.70;95545.56;5073027;28;20405;-63
2020/12/09 11:21:19;;;;;;;34.67;23.47;;;;;;;6.01;85.22;95543.47;5073110;28;20418;-64
2020/12/09 11:23:50;;;;;;;34.00;22.53;;;;;;;5.64;86.11;95534.78;5073451;28;20772;-64